Time;durP1;ratioP1;P1;durP2;ratioP2;P2;SDS_P1;SDS_P2;PMS_P1;PMS_P2;Temp;Humidity;BMP_temperature;BMP_pressure;BME280_temperature;BME280_humidity;BME280_pressure;Samples;Min_cycle;Max_cycle;Signal;HPM_P1;HPM_P2
2023/12/18 00:01:24;;;;;;;24.40;11.00;;;7.90;99.90;;;;;;5017301;28;20395;-66
2023/12/18 00:03:49;;;;;;;25.67;12.15;;;7.90;99.90;;;;;;5033688;28;20040;-66
2023/12/18 00:06:15;;;;;;;18.88;10.65;;;8.00;99.90;;;;;;5013333;28;20049;-67
2023/12/18 00:08:40;;;;;;;24.05;11.63;;;7.90;99.90;;;;;;5020267;28;20048;-67
2023/12/18 00:11:06;;;;;;;23.45;10.75;;;8.00;99.90;;;;;;5019057;28;20420;-67
2023/12/18 00:13:31;;;;;;;25.75;10.77;;;7.90;99.90;;;;;;5017403;28;20050;-67
2023/12/18 00:15:57;;;;;;;21.55;10.60;;;7.90;99.90;;;;;;5018126;28;20381;-67
2023/12/18 00:18:23;;;;;;;21.88;11.48;;;7.90;99.90;;;;;;5020104;28;20116;-66
2023/12/18 00:20:50;;;;;;;25.08;11.98;;;7.90;99.90;;;;;;5018078;28;20038;-67
2023/12/18 00:23:16;;;;;;;20.08;11.57;;;7.90;99.90;;;;;;5015983;28;20045;-67
2023/12/18 00:25:43;;;;;;;18.60;11.35;;;7.90;99.90;;;;;;5022209;28;20386;-67
2023/12/18 00:28:08;;;;;;;21.63;11.50;;;7.90;99.90;;;;;;5017112;28;20038;-67
2023/12/18 00:30:34;;;;;;;29.25;13.48;;;7.90;99.90;;;;;;5017389;28;20045;-67
2023/12/18 00:32:59;;;;;;;18.42;11.50;;;7.90;99.90;;;;;;5021099;28;20443;-67
2023/12/18 00:35:25;;;;;;;22.70;11.95;;;8.00;99.90;;;;;;5014128;28;20195;-67
2023/12/18 00:37:51;;;;;;;17.75;11.10;;;7.90;99.90;;;;;;5017184;28;20128;-67
2023/12/18 00:40:16;;;;;;;19.70;11.35;;;7.90;99.90;;;;;;5016335;28;20056;-67
2023/12/18 00:42:42;;;;;;;22.38;11.18;;;7.90;99.90;;;;;;5005607;28;20049;-67
2023/12/18 00:45:08;;;;;;;21.27;11.25;;;7.90;99.90;;;;;;5018149;28;20461;-67
2023/12/18 00:47:33;;;;;;;22.50;10.77;;;7.90;99.90;;;;;;5017182;28;20052;-66
2023/12/18 00:49:59;;;;;;;23.08;11.48;;;7.90;99.90;;;;;;5005579;28;20060;-67
2023/12/18 00:52:25;;;;;;;22.15;11.18;;;7.90;99.90;;;;;;5014746;28;20042;-67
2023/12/18 00:54:50;;;;;;;25.65;11.73;;;7.90;99.90;;;;;;5014677;28;20053;-66
2023/12/18 00:57:16;;;;;;;22.25;11.25;;;7.80;99.90;;;;;;5016904;28;20285;-67
2023/12/18 00:59:41;;;;;;;23.25;12.55;;;7.90;99.90;;;;;;5018991;28;20033;-67
2023/12/18 01:02:07;;;;;;;20.17;11.15;;;7.90;99.90;;;;;;5016298;28;20490;-67
2023/12/18 01:04:33;;;;;;;20.70;11.02;;;7.90;99.90;;;;;;5023253;28;20041;-67
2023/12/18 01:06:58;;;;;;;23.40;11.82;;;8.60;99.90;;;;;;5017188;28;20045;-67
2023/12/18 01:09:24;;;;;;;24.88;11.60;;;7.90;99.90;;;;;;5017189;28;20475;-67
2023/12/18 01:11:50;;;;;;;25.80;10.63;;;7.90;99.90;;;;;;5017181;28;20581;-67
2023/12/18 01:14:16;;;;;;;19.65;10.65;;;7.90;99.90;;;;;;5020946;28;20403;-67
2023/12/18 01:16:42;;;;;;;18.65;10.68;;;7.90;99.90;;;;;;5016331;28;20050;-67
2023/12/18 01:19:07;;;;;;;23.77;13.10;;;7.90;99.90;;;;;;5017761;28;20448;-67
2023/12/18 01:21:34;;;;;;;21.77;11.13;;;7.90;99.90;;;;;;5017640;28;20123;-67
2023/12/18 01:23:59;;;;;;;26.52;11.05;;;7.90;99.90;;;;;;5021046;28;20064;-67
2023/12/18 01:26:25;;;;;;;15.65;9.90;;;7.90;99.90;;;;;;5018461;28;20084;-66
2023/12/18 01:28:51;;;;;;;25.35;10.95;;;7.90;99.90;;;;;;5016071;28;20041;-66
2023/12/18 01:31:23;;;;;;;26.98;11.63;;;7.90;99.90;;;;;;5016909;28;20057;-66
2023/12/18 01:33:49;;;;;;;22.85;10.23;;;7.90;99.90;;;;;;5016624;28;20041;-66
2023/12/18 01:36:15;;;;;;;22.65;11.20;;;7.90;99.90;;;;;;5017296;28;20048;-66
2023/12/18 01:38:40;;;;;;;18.98;10.40;;;7.90;99.90;;;;;;5016935;28;20042;-67
2023/12/18 01:41:06;;;;;;;19.30;10.63;;;7.90;99.90;;;;;;5015259;28;20041;-67
2023/12/18 01:43:31;;;;;;;23.70;11.07;;;7.90;99.90;;;;;;5021260;28;20120;-67
2023/12/18 01:45:59;;;;;;;18.10;10.52;;;7.90;99.90;;;;;;5013804;28;20050;-67
2023/12/18 01:48:25;;;;;;;20.13;10.93;;;7.90;99.90;;;;;;5017718;28;20095;-67
2023/12/18 01:50:54;;;;;;;22.15;10.27;;;7.90;99.90;;;;;;5016549;28;21300;-67
2023/12/18 01:53:25;;;;;;;23.35;11.98;;;7.90;99.90;;;;;;5020624;28;20045;-66
2023/12/18 01:55:51;;;;;;;21.42;11.05;;;8.00;99.90;;;;;;5018589;28;20044;-66
2023/12/18 01:58:17;;;;;;;26.13;12.35;;;8.00;99.90;;;;;;5015921;28;20041;-66
2023/12/18 02:00:43;;;;;;;26.65;11.20;;;8.00;99.90;;;;;;5014138;28;20037;-67
2023/12/18 02:03:10;;;;;;;17.05;10.90;;;8.00;99.90;;;;;;5013725;28;20033;-66
2023/12/18 02:05:37;;;;;;;22.00;11.15;;;7.90;99.90;;;;;;5018377;28;20084;-66
2023/12/18 02:08:05;;;;;;;21.00;10.98;;;8.00;99.90;;;;;;5015581;28;20042;-66
2023/12/18 02:10:32;;;;;;;23.85;12.35;;;8.00;99.90;;;;;;5017111;28;20052;-67
2023/12/18 02:12:57;;;;;;;22.52;12.88;;;8.00;99.90;;;;;;5017880;28;20045;-67
2023/12/18 02:15:23;;;;;;;20.75;12.30;;;8.00;99.90;;;;;;5022122;28;20048;-67
2023/12/18 02:17:49;;;;;;;24.15;12.70;;;8.00;99.90;;;;;;5014026;28;20245;-66
2023/12/18 02:20:14;;;;;;;19.58;11.93;;;7.90;99.90;;;;;;5018694;28;20076;-66
2023/12/18 02:22:45;;;;;;;26.83;12.40;;;8.00;99.90;;;;;;5017063;28;20029;-67
2023/12/18 02:25:11;;;;;;;23.92;12.13;;;8.00;99.90;;;;;;5015440;28;20571;-67
2023/12/18 02:27:37;;;;;;;27.88;12.73;;;8.00;99.90;;;;;;5019541;28;20160;-67
2023/12/18 02:30:03;;;;;;;22.98;12.20;;;8.00;99.90;;;;;;5019747;28;20484;-66
2023/12/18 02:32:29;;;;;;;25.75;11.77;;;8.00;99.90;;;;;;5023451;28;20044;-67
2023/12/18 02:34:55;;;;;;;16.75;11.27;;;8.00;99.90;;;;;;5020932;28;20053;-66
2023/12/18 02:37:22;;;;;;;20.25;11.32;;;8.00;99.90;;;;;;5019743;28;20065;-66
2023/12/18 02:39:48;;;;;;;18.67;11.75;;;7.90;99.90;;;;;;5023716;28;20037;-66
2023/12/18 02:42:13;;;;;;;20.92;13.02;;;7.90;99.90;;;;;;5018310;28;20108;-67
2023/12/18 02:44:39;;;;;;;24.75;12.27;;;7.90;99.90;;;;;;5021776;28;20073;-67
2023/12/18 02:47:05;;;;;;;20.15;13.05;;;7.90;99.90;;;;;;5021713;28;20169;-66
2023/12/18 02:49:30;;;;;;;26.40;13.45;;;7.90;99.90;;;;;;5021177;28;20034;-66
2023/12/18 02:51:56;;;;;;;28.13;13.05;;;7.90;99.90;;;;;;5021190;28;20045;-66
2023/12/18 02:54:21;;;;;;;25.10;13.70;;;7.90;99.90;;;;;;5018302;28;20034;-66
2023/12/18 02:56:47;;;;;;;29.38;13.63;;;7.80;99.90;;;;;;5022354;28;20403;-67
2023/12/18 02:59:12;;;;;;;22.55;14.27;;;7.80;99.90;;;;;;5022043;28;20052;-67
2023/12/18 03:01:38;;;;;;;21.08;12.98;;;7.80;99.90;;;;;;5023739;28;20553;-67
2023/12/18 03:04:04;;;;;;;20.15;12.07;;;7.80;99.90;;;;;;5018538;28;20038;-67
2023/12/18 03:06:29;;;;;;;22.58;12.80;;;7.80;99.90;;;;;;5021943;28;20037;-67
2023/12/18 03:08:55;;;;;;;23.77;12.20;;;7.90;99.90;;;;;;5021349;28;20038;-67
2023/12/18 03:11:20;;;;;;;24.33;13.27;;;7.90;99.90;;;;;;5020022;28;20038;-67
2023/12/18 03:13:46;;;;;;;23.50;12.90;;;7.90;99.90;;;;;;5024700;28;20033;-67
2023/12/18 03:16:12;;;;;;;23.95;12.48;;;7.90;99.90;;;;;;5016460;28;20093;-67
2023/12/18 03:18:37;;;;;;;25.20;13.00;;;7.90;99.90;;;;;;5020985;28;20037;-67
2023/12/18 03:21:03;;;;;;;23.13;12.68;;;7.90;99.90;;;;;;5016534;28;20045;-67
2023/12/18 03:23:29;;;;;;;28.38;12.52;;;7.90;99.90;;;;;;5021322;28;20688;-67
2023/12/18 03:25:54;;;;;;;22.35;13.25;;;7.90;99.90;;;;;;5017947;28;20050;-67
2023/12/18 03:28:20;;;;;;;23.58;12.50;;;7.90;99.90;;;;;;5018524;28;20686;-67
2023/12/18 03:30:45;;;;;;;20.98;12.35;;;7.90;99.90;;;;;;5018497;28;20045;-67
2023/12/18 03:33:11;;;;;;;21.05;11.88;;;7.90;99.90;;;;;;5018875;28;20065;-67
2023/12/18 03:35:37;;;;;;;23.00;12.32;;;7.90;99.90;;;;;;5017673;28;20044;-67
2023/12/18 03:38:02;;;;;;;19.25;12.23;;;7.90;99.90;;;;;;5016515;28;20045;-67
2023/12/18 03:40:28;;;;;;;21.67;12.30;;;7.90;99.90;;;;;;5020475;28;20038;-67
2023/12/18 03:42:54;;;;;;;23.30;11.90;;;7.90;99.90;;;;;;5015325;28;20139;-66
2023/12/18 03:45:19;;;;;;;25.13;12.40;;;7.90;99.90;;;;;;5016021;28;20055;-66
2023/12/18 03:47:45;;;;;;;19.75;12.60;;;7.90;99.90;;;;;;5014770;28;20037;-66
2023/12/18 03:50:11;;;;;;;20.30;12.60;;;8.00;99.90;;;;;;5018528;28;20057;-67
2023/12/18 03:52:36;;;;;;;17.58;11.68;;;7.90;99.90;;;;;;5018179;28;20049;-67
2023/12/18 03:55:02;;;;;;;21.58;11.75;;;8.00;99.90;;;;;;5018627;28;20041;-67
2023/12/18 03:57:28;;;;;;;23.40;12.00;;;7.90;99.90;;;;;;5016770;28;20574;-66
2023/12/18 03:59:53;;;;;;;20.13;11.95;;;7.90;99.90;;;;;;5017367;28;20037;-67
2023/12/18 04:02:19;;;;;;;22.00;12.15;;;7.90;99.90;;;;;;5022536;28;20386;-67
2023/12/18 04:04:45;;;;;;;24.45;12.38;;;7.90;99.90;;;;;;5019546;28;20048;-67
2023/12/18 04:07:10;;;;;;;20.80;11.75;;;7.90;99.90;;;;;;5019316;28;20029;-67
2023/12/18 04:09:39;;;;;;;25.67;11.88;;;8.00;99.90;;;;;;5016871;28;20049;-67
2023/12/18 04:12:05;;;;;;;19.85;12.02;;;8.00;99.90;;;;;;5018442;28;20401;-67
2023/12/18 04:14:31;;;;;;;21.63;12.00;;;8.00;99.90;;;;;;5019723;28;20073;-67
2023/12/18 04:16:56;;;;;;;20.83;11.57;;;8.00;99.90;;;;;;5014314;28;20581;-67
2023/12/18 04:19:22;;;;;;;18.58;10.75;;;8.00;99.90;;;;;;5018035;28;20056;-67
2023/12/18 04:21:47;;;;;;;23.63;11.65;;;8.00;99.90;;;;;;5016221;28;20037;-67
2023/12/18 04:24:13;;;;;;;27.05;12.98;;;8.10;99.90;;;;;;5018485;28;20444;-67
2023/12/18 04:26:38;;;;;;;21.10;11.88;;;8.00;99.90;;;;;;5016931;28;20045;-67
2023/12/18 04:29:04;;;;;;;18.95;11.90;;;8.00;99.90;;;;;;5018792;28;20041;-67
2023/12/18 04:31:30;;;;;;;23.20;11.57;;;8.00;99.90;;;;;;5017919;28;20053;-67
2023/12/18 04:33:55;;;;;;;23.15;10.82;;;8.00;99.90;;;;;;5017437;28;20073;-67
2023/12/18 04:36:21;;;;;;;16.02;10.55;;;8.00;99.90;;;;;;5020817;28;20045;-67
2023/12/18 04:38:47;;;;;;;18.80;10.55;;;8.10;99.90;;;;;;5015613;28;20041;-67
2023/12/18 04:41:22;;;;;;;23.63;11.45;;;8.00;99.90;;;;;;5022444;28;20049;-67
2023/12/18 04:43:48;;;;;;;;;;;8.00;99.90;;;;;;5018059;28;20045;-66
2023/12/18 04:46:14;;;;;;;20.08;11.27;;;8.00;99.90;;;;;;5020492;28;19928;-67
2023/12/18 04:48:41;;;;;;;17.42;11.70;;;8.00;99.90;;;;;;5016201;28;20248;-67
2023/12/18 04:51:07;;;;;;;23.65;11.10;;;8.00;99.90;;;;;;5018528;28;20506;-66
2023/12/18 04:53:35;;;;;;;19.45;10.82;;;8.00;99.90;;;;;;5018309;28;20156;-67
2023/12/18 04:56:01;;;;;;;20.52;11.45;;;8.00;99.90;;;;;;5019150;28;20045;-67
2023/12/18 04:58:27;;;;;;;18.35;10.85;;;8.00;99.90;;;;;;5021125;28;20395;-67
2023/12/18 05:00:52;;;;;;;19.23;10.25;;;8.10;99.90;;;;;;5014514;28;20048;-67
2023/12/18 05:03:18;;;;;;;20.27;10.55;;;8.00;99.90;;;;;;5020672;28;20048;-67
2023/12/18 05:05:44;;;;;;;21.17;10.70;;;8.00;99.90;;;;;;5019712;28;20033;-67
2023/12/18 05:08:09;;;;;;;15.55;10.38;;;8.00;99.90;;;;;;5017249;28;20077;-67
2023/12/18 05:10:35;;;;;;;17.98;11.27;;;8.10;99.90;;;;;;5016015;28;20045;-67
2023/12/18 05:13:01;;;;;;;22.20;10.65;;;8.10;99.90;;;;;;5015320;28;20392;-67
2023/12/18 05:15:26;;;;;;;19.10;11.55;;;8.00;99.90;;;;;;5018612;28;20044;-67
2023/12/18 05:17:52;;;;;;;20.00;11.63;;;8.00;99.90;;;;;;5018506;28;20041;-67
2023/12/18 05:20:17;;;;;;;20.08;10.40;;;8.00;99.90;;;;;;5018994;28;20392;-67
2023/12/18 05:22:43;;;;;;;24.85;10.50;;;8.00;99.90;;;;;;5014975;28;20034;-67
2023/12/18 05:25:12;;;;;;;21.63;10.77;;;8.00;99.90;;;;;;5021823;28;20055;-67
2023/12/18 05:27:37;;;;;;;15.80;10.52;;;8.00;99.90;;;;;;5019260;28;20042;-67
2023/12/18 05:30:03;;;;;;;21.75;10.70;;;8.00;99.90;;;;;;5013481;28;20052;-67
2023/12/18 05:32:29;;;;;;;13.95;10.80;;;8.10;99.90;;;;;;5019277;28;20060;-67
2023/12/18 05:34:55;;;;;;;17.75;10.65;;;8.00;99.90;;;;;;5016830;28;20034;-67
2023/12/18 05:37:21;;;;;;;21.67;11.13;;;8.00;99.90;;;;;;5016205;28;20034;-66
2023/12/18 05:39:47;;;;;;;19.58;10.30;;;8.10;99.90;;;;;;5030138;28;20104;-67
2023/12/18 05:42:14;;;;;;;19.10;10.23;;;8.10;99.90;;;;;;5018794;28;20640;-67
2023/12/18 05:44:40;;;;;;;16.23;11.13;;;8.00;99.90;;;;;;5031422;28;20045;-67
2023/12/18 05:47:06;;;;;;;19.55;11.25;;;8.10;99.90;;;;;;5032874;28;20401;-68
2023/12/18 05:49:31;;;;;;;20.50;10.98;;;8.00;99.90;;;;;;5016832;28;20033;-67
2023/12/18 05:51:57;;;;;;;23.38;12.02;;;8.10;99.90;;;;;;5014011;28;20492;-67
2023/12/18 05:54:23;;;;;;;19.92;10.93;;;8.00;99.90;;;;;;5022068;28;20041;-66
2023/12/18 05:56:48;;;;;;;22.08;10.50;;;8.00;99.90;;;;;;5016969;28;20041;-67
2023/12/18 05:59:14;;;;;;;16.98;9.98;;;8.00;99.90;;;;;;5017597;28;20095;-67
2023/12/18 06:01:39;;;;;;;20.60;11.30;;;8.10;99.90;;;;;;5016552;28;20711;-67
2023/12/18 06:04:05;;;;;;;17.95;11.02;;;8.00;99.90;;;;;;5024399;28;20048;-67
2023/12/18 06:06:31;;;;;;;19.75;11.30;;;8.10;99.90;;;;;;5020322;28;20041;-67
2023/12/18 06:08:56;;;;;;;21.63;11.52;;;8.00;99.90;;;;;;5023692;28;20519;-67
2023/12/18 06:11:22;;;;;;;17.20;11.13;;;8.00;99.90;;;;;;5019851;28;20045;-67
2023/12/18 06:13:47;;;;;;;18.33;11.05;;;8.00;99.90;;;;;;5019108;28;20042;-67
2023/12/18 06:16:13;;;;;;;18.63;10.45;;;8.00;99.90;;;;;;5022743;28;20052;-67
2023/12/18 06:18:38;;;;;;;20.52;11.23;;;8.30;99.90;;;;;;5018352;28;20030;-67
2023/12/18 06:21:05;;;;;;;20.33;11.45;;;8.10;99.90;;;;;;5020301;28;20132;-67
2023/12/18 06:23:31;;;;;;;18.90;11.27;;;8.00;99.90;;;;;;5021101;28;20044;-67
2023/12/18 06:25:57;;;;;;;19.02;11.15;;;8.10;99.90;;;;;;5022627;28;20383;-67
2023/12/18 06:28:23;;;;;;;22.67;12.38;;;8.00;99.90;;;;;;5016852;28;20476;-67
2023/12/18 06:30:48;;;;;;;19.08;11.88;;;8.10;99.90;;;;;;5026528;28;20400;-67
2023/12/18 06:33:14;;;;;;;23.77;12.35;;;8.00;99.90;;;;;;5018965;28;20397;-67
2023/12/18 06:35:41;;;;;;;27.20;12.20;;;8.00;99.90;;;;;;5023733;28;20116;-67
2023/12/18 06:38:06;;;;;;;16.67;10.68;;;8.10;99.90;;;;;;5018581;28;20100;-67
2023/12/18 06:40:32;;;;;;;15.25;11.57;;;8.00;99.90;;;;;;5021349;28;20510;-67
2023/12/18 06:42:58;;;;;;;19.17;11.23;;;8.10;99.90;;;;;;5021320;28;20045;-67
2023/12/18 06:45:23;;;;;;;18.15;11.70;;;8.10;99.90;;;;;;5005531;28;20124;-66
2023/12/18 06:47:49;;;;;;;20.65;11.55;;;8.00;99.90;;;;;;5036240;28;20053;-67
2023/12/18 06:50:15;;;;;;;23.73;11.32;;;8.10;99.90;;;;;;5017146;28;20034;-67
2023/12/18 06:52:41;;;;;;;26.30;12.63;;;8.10;99.90;;;;;;5019654;28;20040;-66
2023/12/18 06:55:07;;;;;;;25.60;12.15;;;8.00;99.90;;;;;;5016753;28;20045;-67
2023/12/18 06:57:33;;;;;;;20.85;11.57;;;8.10;99.90;;;;;;5003135;28;20539;-67
2023/12/18 06:59:59;;;;;;;26.02;12.48;;;8.10;99.90;;;;;;5020879;28;20069;-66
2023/12/18 07:02:26;;;;;;;20.55;11.63;;;8.10;99.90;;;;;;5020672;28;20130;-66
2023/12/18 07:04:52;;;;;;;24.58;12.35;;;8.10;99.90;;;;;;5021470;28;20037;-67
2023/12/18 07:07:19;;;;;;;25.75;12.18;;;8.10;99.90;;;;;;5019175;28;20045;-67
2023/12/18 07:09:45;;;;;;;25.27;12.07;;;8.10;99.90;;;;;;5019123;28;20036;-66
2023/12/18 07:12:10;;;;;;;23.33;12.68;;;8.00;99.90;;;;;;5018739;28;20152;-67
2023/12/18 07:14:38;;;;;;;23.42;12.20;;;8.10;99.90;;;;;;5021741;28;20531;-67
2023/12/18 07:17:04;;;;;;;22.92;11.55;;;8.10;99.90;;;;;;5018780;28;20077;-67
2023/12/18 07:19:30;;;;;;;24.05;12.68;;;8.00;99.90;;;;;;5021759;28;20124;-67
2023/12/18 07:21:55;;;;;;;18.17;11.90;;;8.10;99.90;;;;;;5018990;28;20041;-66
2023/12/18 07:24:21;;;;;;;14.55;11.55;;;8.10;99.90;;;;;;5016830;28;20048;-66
2023/12/18 07:26:46;;;;;;;18.17;11.63;;;8.10;99.90;;;;;;5020602;28;20586;-66
2023/12/18 07:29:12;;;;;;;20.95;12.07;;;8.10;99.90;;;;;;5032414;28;20045;-66
2023/12/18 07:31:38;;;;;;;23.40;12.43;;;8.10;99.90;;;;;;5019407;28;20099;-66
2023/12/18 07:34:04;;;;;;;22.50;12.30;;;8.10;99.90;;;;;;5016771;28;20054;-66
2023/12/18 07:36:30;;;;;;;29.55;13.68;;;8.10;99.90;;;;;;5017077;28;20500;-66
2023/12/18 07:38:55;;;;;;;20.92;11.93;;;8.10;99.90;;;;;;5024481;28;20250;-66
2023/12/18 07:41:21;;;;;;;19.45;11.25;;;8.10;99.90;;;;;;5018615;28;20065;-66
2023/12/18 07:43:46;;;;;;;21.00;11.68;;;8.10;99.90;;;;;;5023711;28;20060;-66
2023/12/18 07:46:19;;;;;;;24.83;11.55;;;8.10;99.90;;;;;;5018432;28;20041;-66
2023/12/18 07:48:47;;;;;;;19.75;12.00;;;8.20;99.90;;;;;;5023873;28;20045;-66
2023/12/18 07:51:12;;;;;;;19.27;11.25;;;8.20;99.90;;;;;;5016384;28;20124;-67
2023/12/18 07:53:38;;;;;;;24.10;12.40;;;8.20;99.90;;;;;;5019805;28;20583;-66
2023/12/18 07:56:05;;;;;;;20.90;11.82;;;8.20;99.90;;;;;;5015963;28;20045;-66
2023/12/18 07:58:30;;;;;;;21.35;11.70;;;8.20;99.90;;;;;;5018631;28;20122;-66
2023/12/18 08:00:56;;;;;;;23.58;12.32;;;8.20;99.90;;;;;;5023617;28;20033;-66
2023/12/18 08:03:21;;;;;;;21.00;12.60;;;8.20;99.90;;;;;;5020445;28;20045;-66
2023/12/18 08:05:47;;;;;;;19.23;13.10;;;8.20;99.90;;;;;;5019013;28;20524;-66
2023/12/18 08:08:13;;;;;;;18.17;13.57;;;8.20;99.90;;;;;;5019469;28;20042;-66
2023/12/18 08:10:38;;;;;;;22.85;13.18;;;8.10;99.90;;;;;;5021041;28;20031;-66
2023/12/18 08:13:05;;;;;;;22.60;13.07;;;8.20;99.90;;;;;;5019842;28;20040;-66
2023/12/18 08:15:31;;;;;;;34.05;14.98;;;8.30;99.90;;;;;;5019113;28;20057;-66
2023/12/18 08:17:57;;;;;;;23.73;14.52;;;8.10;99.90;;;;;;5021142;28;20236;-66
2023/12/18 08:20:22;;;;;;;21.17;14.40;;;8.10;99.90;;;;;;5017756;28;20046;-66
2023/12/18 08:22:48;;;;;;;21.52;14.60;;;8.10;99.90;;;;;;5021987;28;20379;-66
2023/12/18 08:25:14;;;;;;;26.17;15.25;;;8.10;99.90;;;;;;5017916;28;20049;-66
2023/12/18 08:27:40;;;;;;;20.67;13.75;;;8.10;99.90;;;;;;5021566;28;20042;-66
2023/12/18 08:30:09;;;;;;;27.08;16.23;;;8.10;99.90;;;;;;5030289;28;20037;-66
2023/12/18 08:32:35;;;;;;;24.52;14.95;;;8.10;99.90;;;;;;5017875;28;20049;-66
2023/12/18 08:35:02;;;;;;;23.67;15.07;;;8.10;99.90;;;;;;5020409;28;20112;-66
2023/12/18 08:37:27;;;;;;;22.90;15.15;;;8.10;99.90;;;;;;5013280;28;20092;-66
2023/12/18 08:39:53;;;;;;;24.10;14.40;;;8.10;99.90;;;;;;5021404;28;20500;-66
2023/12/18 08:42:19;;;;;;;23.45;14.85;;;8.10;99.90;;;;;;5017073;28;20361;-66
2023/12/18 08:44:44;;;;;;;22.17;14.48;;;8.10;99.90;;;;;;5019477;28;20088;-66
2023/12/18 08:47:11;;;;;;;20.75;14.82;;;8.10;99.90;;;;;;5017301;28;20042;-66
2023/12/18 08:49:37;;;;;;;22.38;16.08;;;8.10;99.90;;;;;;5018511;28;20037;-66
2023/12/18 08:52:03;;;;;;;25.42;16.52;;;8.10;99.90;;;;;;5018763;28;20516;-66
2023/12/18 08:54:28;;;;;;;23.83;15.45;;;8.10;99.90;;;;;;5019502;28;20041;-66
2023/12/18 08:56:54;;;;;;;23.75;15.40;;;8.10;99.90;;;;;;5018061;28;20084;-66
2023/12/18 08:59:19;;;;;;;22.88;14.98;;;8.10;99.90;;;;;;5002506;28;20045;-66
2023/12/18 09:01:45;;;;;;;28.70;16.20;;;8.10;99.90;;;;;;5021790;28;20037;-66
2023/12/18 09:04:10;;;;;;;26.85;16.02;;;8.10;99.90;;;;;;5017681;28;20045;-66
2023/12/18 09:06:36;;;;;;;23.08;15.27;;;8.10;99.90;;;;;;5022222;28;20447;-66
2023/12/18 09:09:03;;;;;;;22.92;15.35;;;8.20;99.90;;;;;;5016088;28;20484;-67
2023/12/18 09:11:30;;;;;;;20.50;15.60;;;8.10;99.90;;;;;;5016375;28;20507;-66
2023/12/18 09:13:56;;;;;;;25.58;16.17;;;8.20;99.90;;;;;;5019119;28;20107;-66
2023/12/18 09:16:22;;;;;;;23.30;16.65;;;8.20;99.90;;;;;;5016399;28;20037;-66
2023/12/18 09:18:47;;;;;;;28.83;15.77;;;8.20;99.90;;;;;;5021736;28;20087;-67
2023/12/18 09:21:13;;;;;;;21.25;16.70;;;8.20;99.90;;;;;;5019595;28;20139;-66
2023/12/18 09:23:39;;;;;;;28.42;16.80;;;8.20;99.90;;;;;;5018934;28;20041;-66
2023/12/18 09:26:05;;;;;;;25.77;17.10;;;8.20;99.90;;;;;;5014216;28;20040;-66
2023/12/18 09:28:31;;;;;;;26.63;16.65;;;8.30;99.90;;;;;;5019527;28;20098;-66
2023/12/18 09:30:56;;;;;;;25.17;16.25;;;8.30;99.90;;;;;;5017925;28;20401;-66
2023/12/18 09:33:22;;;;;;;25.77;15.55;;;8.30;99.90;;;;;;5018271;28;20045;-66
2023/12/18 09:35:47;;;;;;;24.58;15.85;;;8.30;99.90;;;;;;5018724;28;20040;-66
2023/12/18 09:38:13;;;;;;;25.42;17.30;;;8.30;99.90;;;;;;5020109;28;20042;-66
2023/12/18 09:40:44;;;;;;;23.73;16.92;;;8.30;99.90;;;;;;5026276;28;20041;-66
2023/12/18 09:43:16;;;;;;;25.33;17.20;;;8.50;99.90;;;;;;5018409;28;20096;-66
2023/12/18 09:45:46;;;;;;;27.45;17.52;;;8.30;99.90;;;;;;5020983;28;20042;-66
2023/12/18 09:48:13;;;;;;;24.95;17.25;;;8.40;99.90;;;;;;5020090;28;20046;-66
2023/12/18 09:50:39;;;;;;;24.45;16.23;;;8.40;99.90;;;;;;5024180;28;20383;-66
2023/12/18 09:53:12;;;;;;;25.35;18.08;;;8.40;99.90;;;;;;5018926;28;20200;-66
2023/12/18 09:55:38;;;;;;;28.20;17.98;;;8.30;99.90;;;;;;5020045;28;21453;-66
2023/12/18 09:58:05;;;;;;;26.40;18.92;;;8.40;99.90;;;;;;5021282;28;20045;-66
2023/12/18 10:00:31;;;;;;;27.15;18.23;;;8.40;99.90;;;;;;5018600;28;20037;-66
2023/12/18 10:02:58;;;;;;;36.85;17.90;;;8.40;99.90;;;;;;5025777;28;20197;-66
2023/12/18 10:05:24;;;;;;;19.63;15.77;;;8.40;99.90;;;;;;5021825;28;20067;-66
2023/12/18 10:07:54;;;;;;;21.65;17.23;;;8.40;99.90;;;;;;5022467;28;20480;-66
2023/12/18 10:10:20;;;;;;;24.83;17.35;;;8.40;99.90;;;;;;5019276;28;20045;-66
2023/12/18 10:12:47;;;;;;;25.30;17.95;;;8.50;99.90;;;;;;5019629;28;20042;-66
2023/12/18 10:15:14;;;;;;;25.90;16.75;;;8.50;99.90;;;;;;5036295;28;20042;-66
2023/12/18 10:17:41;;;;;;;23.80;16.30;;;8.50;99.90;;;;;;5018421;28;20128;-66
2023/12/18 10:20:08;;;;;;;23.83;16.63;;;8.50;99.90;;;;;;5021464;28;20116;-66
2023/12/18 10:22:34;;;;;;;22.95;16.85;;;8.50;99.90;;;;;;5016560;28;20129;-66
2023/12/18 10:24:59;;;;;;;24.02;16.73;;;8.50;99.90;;;;;;5020444;28;21396;-66
2023/12/18 10:27:25;;;;;;;25.25;17.25;;;8.60;99.90;;;;;;5020183;28;20034;-66
2023/12/18 10:29:53;;;;;;;23.80;16.90;;;8.60;99.90;;;;;;5016207;28;20060;-66
2023/12/18 10:32:21;;;;;;;24.15;18.38;;;8.60;99.90;;;;;;5025390;28;20076;-66
2023/12/18 10:34:48;;;;;;;24.35;17.45;;;8.60;99.90;;;;;;5021302;28;20041;-66
2023/12/18 10:37:15;;;;;;;25.05;16.08;;;8.60;99.90;;;;;;5021561;28;20373;-66
2023/12/18 10:39:41;;;;;;;27.42;17.02;;;8.60;99.90;;;;;;5034528;28;20048;-66
2023/12/18 10:42:20;;;;;;;23.58;17.60;;;8.60;99.90;;;;;;5022321;28;20037;-66
2023/12/18 10:44:47;;;;;;;27.40;16.40;;;8.60;99.90;;;;;;5018872;28;20037;-66
2023/12/18 10:47:16;;;;;;;25.67;17.58;;;8.60;99.90;;;;;;5016072;28;20152;-66
2023/12/18 10:49:42;;;;;;;27.05;18.13;;;8.70;99.90;;;;;;5021475;28;20152;-66
2023/12/18 10:52:09;;;;;;;27.77;17.85;;;8.70;99.90;;;;;;5018963;28;20045;-66
2023/12/18 10:54:36;;;;;;;26.58;16.55;;;8.60;99.90;;;;;;5019513;28;20484;-66
2023/12/18 10:57:03;;;;;;;27.55;17.13;;;8.70;99.90;;;;;;5015862;28;20132;-66
2023/12/18 10:59:31;;;;;;;24.90;17.27;;;8.70;99.90;;;;;;5019741;28;20045;-66
2023/12/18 11:01:57;;;;;;;26.58;17.30;;;8.60;99.90;;;;;;5018127;28;20050;-66
2023/12/18 11:04:25;;;;;;;23.98;17.95;;;9.00;99.90;;;;;;5019435;28;20044;-66
2023/12/18 11:06:51;;;;;;;24.05;16.52;;;8.90;99.90;;;;;;5022298;28;20077;-66
2023/12/18 11:09:17;;;;;;;23.23;18.27;;;8.70;99.90;;;;;;5019938;28;20068;-66
2023/12/18 11:11:44;;;;;;;28.92;18.08;;;8.70;99.90;;;;;;5020869;28;20052;-66
2023/12/18 11:14:12;;;;;;;24.73;16.00;;;8.70;99.90;;;;;;5019560;28;20100;-66
2023/12/18 11:17:06;;;;;;;22.90;17.13;;;8.70;99.90;;;;;;5023031;28;20052;-66
2023/12/18 11:19:44;;;;;;;22.95;17.00;;;8.70;99.90;;;;;;5017506;28;20073;-66
2023/12/18 11:22:10;;;;;;;28.02;16.25;;;8.80;99.90;;;;;;5018688;28;20476;-66
2023/12/18 11:24:37;;;;;;;28.95;16.33;;;8.80;99.90;;;;;;4994291;28;20545;-66
2023/12/18 11:27:07;;;;;;;23.52;16.75;;;8.80;99.90;;;;;;5019539;28;20029;-66
2023/12/18 11:29:48;;;;;;;27.35;17.35;;;8.80;99.90;;;;;;5019888;28;20084;-66
2023/12/18 11:32:46;;;;;;;23.85;15.80;;;8.80;99.90;;;;;;5020462;28;20148;-66
2023/12/18 11:35:12;;;;;;;25.88;19.20;;;8.80;99.90;;;;;;5008032;28;20508;-66
2023/12/18 11:37:45;;;;;;;25.88;18.63;;;8.80;99.90;;;;;;5019234;28;20038;-66
2023/12/18 11:40:36;;;;;;;22.10;16.60;;;8.90;99.90;;;;;;5017153;28;21282;-66
2023/12/18 11:43:03;;;;;;;23.65;15.77;;;8.80;99.90;;;;;;5021094;28;20048;-66
2023/12/18 11:45:30;;;;;;;25.58;17.35;;;8.80;99.90;;;;;;5018914;28;20128;-66
2023/12/18 11:47:59;;;;;;;25.65;16.95;;;8.90;99.90;;;;;;5020707;28;20960;-66
2023/12/18 11:50:25;;;;;;;22.95;17.08;;;8.80;99.90;;;;;;5003565;28;20045;-67
2023/12/18 11:52:55;;;;;;;26.00;16.27;;;8.90;99.90;;;;;;5023218;28;20037;-66
2023/12/18 11:55:42;;;;;;;22.02;15.82;;;8.90;99.90;;;;;;5021011;28;20338;-66
2023/12/18 11:58:08;;;;;;;28.40;16.38;;;8.90;99.90;;;;;;5018693;28;20034;-66
2023/12/18 12:00:35;;;;;;;22.30;16.95;;;8.90;99.90;;;;;;5022438;28;20038;-66
2023/12/18 12:03:04;;;;;;;24.48;16.33;;;8.90;99.90;;;;;;5023726;28;20088;-66
2023/12/18 12:05:31;;;;;;;25.48;16.27;;;8.90;99.90;;;;;;5024514;28;20052;-66
2023/12/18 12:07:58;;;;;;;24.08;17.58;;;8.90;99.90;;;;;;5023131;28;20053;-66
2023/12/18 12:10:23;;;;;;;22.33;16.27;;;8.90;99.90;;;;;;5020317;28;20087;-67
2023/12/18 12:12:57;;;;;;;25.30;17.63;;;8.90;99.90;;;;;;5023593;28;20416;-67
2023/12/18 12:15:28;;;;;;;25.40;17.67;;;8.80;99.90;;;;;;5015425;28;20116;-66
2023/12/18 12:18:06;;;;;;;28.33;17.90;;;8.90;99.90;;;;;;5021009;28;20380;-66
2023/12/18 12:20:32;;;;;;;26.88;18.25;;;8.80;99.90;;;;;;5020280;28;20535;-66
2023/12/18 12:22:59;;;;;;;30.02;17.05;;;8.80;99.90;;;;;;5020196;28;20037;-66
2023/12/18 12:25:25;;;;;;;25.20;17.20;;;8.80;99.90;;;;;;5029399;28;20049;-66
2023/12/18 12:27:51;;;;;;;25.13;16.98;;;8.80;99.90;;;;;;5017966;28;20038;-66
2023/12/18 12:30:18;;;;;;;29.98;17.30;;;8.80;99.90;;;;;;5021677;28;20057;-66
2023/12/18 12:32:44;;;;;;;24.55;16.88;;;8.80;99.90;;;;;;5019980;28;20038;-66
2023/12/18 12:35:11;;;;;;;25.73;17.10;;;8.80;99.90;;;;;;5018811;28;20045;-66